createdAt,value
2022-10-31T00:01:23.871Z,7.36
2022-10-31T00:03:51.565Z,7.29
2022-10-31T00:06:21.061Z,6.72
2022-10-31T00:08:48.481Z,7.72
2022-10-31T00:11:15.092Z,7.42
2022-10-31T00:13:41.708Z,7.36
2022-10-31T00:16:17.254Z,7.31
2022-10-31T00:18:43.887Z,6.24
2022-10-31T00:21:10.559Z,7.86
2022-10-31T00:23:37.187Z,7.61
2022-10-31T00:26:04.240Z,7.22
2022-10-31T00:28:31.604Z,7.51
2022-10-31T00:31:05.355Z,7.00
2022-10-31T00:33:33.587Z,7.42
2022-10-31T00:36:00.162Z,5.66
2022-10-31T00:38:26.810Z,7.49
2022-10-31T00:40:53.458Z,6.34
2022-10-31T00:43:20.083Z,7.37
2022-10-31T00:45:46.669Z,7.10
2022-10-31T00:48:13.327Z,7.13
2022-10-31T00:50:40.121Z,6.87
2022-10-31T00:53:06.794Z,7.47
2022-10-31T00:55:33.504Z,7.65
2022-10-31T00:58:00.394Z,7.41
2022-10-31T01:00:27.394Z,7.32
2022-10-31T01:02:54.033Z,7.14
2022-10-31T01:05:20.682Z,6.91
2022-10-31T01:07:47.325Z,7.44
2022-10-31T01:10:13.970Z,6.90
2022-10-31T01:12:41.331Z,6.88
2022-10-31T01:15:08.957Z,6.74
2022-10-31T01:17:35.585Z,6.98
2022-10-31T01:20:02.199Z,6.16
2022-10-31T01:22:28.815Z,6.17
2022-10-31T01:24:55.412Z,5.72
2022-10-31T01:27:22.125Z,6.52
2022-10-31T01:29:48.763Z,6.58
2022-10-31T01:32:15.369Z,6.33
2022-10-31T01:34:41.968Z,6.57
2022-10-31T01:37:08.596Z,6.32
2022-10-31T01:39:35.193Z,6.18
2022-10-31T01:42:01.823Z,7.28
2022-10-31T01:44:28.335Z,7.29
2022-10-31T01:47:04.294Z,6.89
2022-10-31T01:49:35.300Z,7.27
2022-10-31T01:52:23.689Z,7.26
2022-10-31T01:54:57.554Z,6.35
2022-10-31T01:57:24.171Z,6.93
2022-10-31T01:59:52.355Z,6.26
2022-10-31T02:02:19.187Z,5.97
2022-10-31T02:04:46.337Z,6.09
2022-10-31T02:07:15.465Z,5.57
2022-10-31T02:09:42.155Z,6.74
2022-10-31T02:12:09.525Z,7.02
2022-10-31T02:14:36.144Z,6.60
2022-10-31T02:17:02.727Z,5.78
2022-10-31T02:20:10.725Z,7.10
2022-10-31T02:22:50.056Z,5.54
2022-10-31T02:25:45.530Z,6.86
2022-10-31T02:28:51.326Z,7.11
2022-10-31T02:31:26.471Z,6.95
2022-10-31T02:34:00.374Z,6.99
2022-10-31T02:36:34.130Z,6.08
2022-10-31T02:39:09.402Z,7.10
2022-10-31T02:41:54.080Z,6.90
2022-10-31T02:44:40.788Z,7.07
2022-10-31T02:47:13.437Z,6.01
2022-10-31T02:49:39.931Z,7.01
2022-10-31T02:52:20.186Z,6.13
2022-10-31T02:54:47.377Z,6.38
2022-10-31T02:57:13.988Z,6.40
2022-10-31T02:59:43.500Z,6.07
2022-10-31T03:02:28.548Z,6.60
2022-10-31T03:05:02.148Z,6.28
2022-10-31T03:07:42.232Z,6.50
2022-10-31T03:10:20.317Z,6.50
2022-10-31T03:12:55.885Z,6.55
2022-10-31T03:15:33.368Z,5.44
2022-10-31T03:18:06.064Z,6.62
2022-10-31T03:20:39.324Z,6.03
2022-10-31T03:23:08.209Z,5.64
2022-10-31T03:25:35.545Z,6.71
2022-10-31T03:28:02.756Z,5.68
2022-10-31T03:30:30.225Z,5.16
2022-10-31T03:32:57.269Z,6.09
2022-10-31T03:35:24.868Z,5.91
2022-10-31T03:37:52.804Z,6.21
2022-10-31T03:40:20.336Z,5.90
2022-10-31T03:42:51.432Z,5.66
2022-10-31T03:45:40.610Z,6.74
2022-10-31T03:48:07.209Z,5.42
2022-10-31T03:50:41.500Z,6.58
2022-10-31T03:53:17.281Z,6.29
2022-10-31T03:56:05.799Z,5.92
2022-10-31T03:58:39.308Z,5.95
2022-10-31T04:01:07.333Z,5.71
2022-10-31T04:03:35.072Z,5.05
2022-10-31T04:06:04.954Z,5.92
2022-10-31T04:08:32.539Z,4.58
2022-10-31T04:10:59.695Z,6.12
2022-10-31T04:13:28.847Z,6.43
2022-10-31T04:15:55.688Z,5.79
2022-10-31T04:18:23.954Z,4.78
2022-10-31T04:20:51.087Z,5.57
2022-10-31T04:23:23.434Z,6.23
2022-10-31T04:25:50.086Z,4.76
2022-10-31T04:28:16.767Z,4.63
2022-10-31T04:30:43.370Z,4.87
2022-10-31T04:33:10.005Z,4.68
2022-10-31T04:35:36.638Z,5.12
2022-10-31T04:38:03.371Z,6.47
2022-10-31T04:40:30.006Z,4.45
2022-10-31T04:42:56.698Z,4.74
2022-10-31T04:45:23.382Z,5.61
2022-10-31T04:47:50.005Z,5.08
2022-10-31T04:50:16.711Z,5.57
2022-10-31T04:52:44.193Z,4.88
2022-10-31T04:55:11.155Z,4.36
2022-10-31T04:58:01.827Z,6.31
2022-10-31T05:00:28.731Z,5.15
2022-10-31T05:02:56.849Z,4.64
2022-10-31T05:05:28.704Z,5.20
2022-10-31T05:07:55.398Z,4.14
2022-10-31T05:10:24.367Z,4.76
2022-10-31T05:13:01.841Z,5.22
2022-10-31T05:15:29.116Z,4.69
2022-10-31T05:17:55.843Z,5.01
2022-10-31T05:20:24.222Z,4.97
2022-10-31T05:22:52.098Z,5.66
2022-10-31T05:25:19.237Z,5.31
2022-10-31T05:27:47.181Z,5.07
2022-10-31T05:30:15.267Z,5.07
2022-10-31T05:32:46.263Z,4.89
2022-10-31T05:35:14.633Z,5.23
2022-10-31T05:37:41.323Z,5.33
2022-10-31T05:40:09.446Z,4.26
2022-10-31T05:42:36.220Z,5.24
2022-10-31T05:45:02.893Z,4.21
2022-10-31T05:47:29.484Z,5.37
2022-10-31T05:49:56.122Z,5.86
2022-10-31T05:52:22.699Z,4.51
2022-10-31T05:54:49.282Z,4.68
2022-10-31T05:57:15.881Z,5.68
2022-10-31T05:59:42.558Z,5.23
2022-10-31T06:02:09.155Z,4.86
2022-10-31T06:04:35.791Z,4.39
2022-10-31T06:07:02.450Z,5.39
2022-10-31T06:09:29.170Z,5.52
2022-10-31T06:11:55.803Z,4.81
2022-10-31T06:14:22.429Z,5.37
2022-10-31T06:16:49.044Z,6.03
2022-10-31T06:19:15.771Z,5.42
2022-10-31T06:21:42.377Z,5.07
2022-10-31T06:24:08.956Z,5.47
2022-10-31T06:26:35.570Z,5.22
2022-10-31T06:29:04.206Z,5.17
2022-10-31T06:31:31.113Z,6.20
2022-10-31T06:33:57.883Z,4.65
2022-10-31T06:36:24.680Z,4.86
2022-10-31T06:38:51.404Z,5.72
2022-10-31T06:41:18.017Z,5.84
2022-10-31T06:43:47.671Z,5.67
2022-10-31T06:46:14.391Z,5.84
2022-10-31T06:48:44.013Z,6.05
2022-10-31T06:51:10.735Z,5.25
2022-10-31T06:53:37.460Z,5.82
2022-10-31T06:56:04.225Z,5.33
2022-10-31T06:58:30.827Z,5.14
2022-10-31T07:01:00.560Z,6.01
2022-10-31T07:03:27.404Z,5.89
2022-10-31T07:05:56.579Z,6.56
2022-10-31T07:08:24.455Z,5.15
2022-10-31T07:10:55.979Z,5.70
2022-10-31T07:13:28.873Z,6.83
2022-10-31T07:15:59.836Z,6.29
2022-10-31T07:18:26.559Z,5.44
2022-10-31T07:20:53.593Z,6.62
2022-10-31T07:23:20.348Z,7.20
2022-10-31T07:25:47.237Z,6.52
2022-10-31T07:28:13.897Z,7.28
2022-10-31T07:30:40.578Z,7.65
2022-10-31T07:33:07.513Z,8.39
2022-10-31T07:35:35.991Z,9.62
2022-10-31T07:38:13.142Z,9.85
2022-10-31T07:40:40.341Z,10.55
2022-10-31T07:43:10.120Z,12.42
2022-10-31T07:45:40.659Z,13.48
2022-10-31T07:48:07.329Z,13.71
2022-10-31T07:50:36.684Z,15.10
2022-10-31T07:53:06.561Z,16.75
2022-10-31T07:55:33.450Z,16.93
2022-10-31T07:58:08.058Z,18.91
2022-10-31T08:00:35.099Z,20.38
2022-10-31T08:03:03.387Z,18.85
2022-10-31T08:05:30.642Z,20.17
2022-10-31T08:07:57.856Z,21.44
2022-10-31T08:10:25.052Z,20.96
2022-10-31T08:13:01.497Z,22.39
2022-10-31T08:15:28.319Z,22.68
2022-10-31T08:17:55.084Z,22.75
2022-10-31T08:20:21.910Z,23.40
2022-10-31T08:22:58.615Z,23.31
2022-10-31T08:25:25.604Z,23.70
2022-10-31T08:27:53.588Z,23.35
2022-10-31T08:30:21.460Z,24.77
2022-10-31T08:32:48.337Z,24.24
2022-10-31T08:35:15.407Z,25.06
2022-10-31T08:37:42.427Z,24.65
2022-10-31T08:40:09.799Z,24.25
2022-10-31T08:42:36.588Z,24.15
2022-10-31T08:45:03.614Z,22.67
2022-10-31T08:47:30.386Z,21.69
2022-10-31T08:49:57.112Z,21.12
2022-10-31T08:52:51.231Z,20.18
2022-10-31T08:55:14.528Z,19.52
2022-10-31T08:57:41.217Z,19.43
2022-10-31T09:00:08.511Z,18.51
2022-10-31T09:02:35.263Z,17.22
2022-10-31T09:05:01.916Z,17.97
2022-10-31T09:07:28.599Z,16.07
2022-10-31T09:09:56.845Z,16.61
2022-10-31T09:12:24.957Z,17.20
2022-10-31T09:14:51.723Z,16.52
2022-10-31T09:17:18.402Z,16.69
2022-10-31T09:19:45.077Z,15.56
2022-10-31T09:22:11.777Z,16.38
2022-10-31T09:24:38.491Z,14.90
2022-10-31T09:27:05.162Z,15.49
2022-10-31T09:29:31.840Z,15.58
2022-10-31T09:31:58.667Z,15.77
2022-10-31T09:34:25.351Z,14.94
2022-10-31T09:36:52.043Z,14.21
2022-10-31T09:39:18.774Z,15.04
2022-10-31T09:42:02.482Z,14.96
2022-10-31T09:44:39.634Z,15.32
2022-10-31T09:47:09.581Z,15.05
2022-10-31T09:49:59.904Z,16.08
2022-10-31T09:52:34.070Z,14.57
2022-10-31T09:55:24.098Z,14.06
2022-10-31T09:57:51.055Z,14.54
2022-10-31T10:00:19.631Z,14.65
2022-10-31T10:02:52.831Z,15.76
2022-10-31T10:05:48.075Z,14.85
2022-10-31T10:08:19.483Z,13.97
2022-10-31T10:10:55.425Z,15.72
2022-10-31T10:13:53.131Z,15.77
2022-10-31T10:16:34.608Z,15.19
2022-10-31T10:19:18.084Z,14.61
2022-10-31T10:22:09.674Z,14.23
2022-10-31T10:25:04.008Z,16.07
2022-10-31T10:27:33.524Z,15.56
2022-10-31T10:30:20.311Z,14.53
2022-10-31T10:33:14.264Z,15.03
2022-10-31T10:35:47.308Z,14.25
2022-10-31T10:38:41.813Z,15.09
2022-10-31T10:41:34.264Z,15.01
2022-10-31T10:44:01.401Z,15.88
2022-10-31T10:47:10.990Z,16.64
2022-10-31T10:49:55.730Z,14.48
2022-10-31T10:52:50.522Z,15.94
2022-10-31T10:55:56.469Z,16.75
2022-10-31T10:58:23.130Z,14.89
2022-10-31T11:00:50.952Z,15.43
2022-10-31T11:03:18.548Z,14.68
2022-10-31T11:05:52.649Z,15.64
2022-10-31T11:08:29.221Z,16.14
2022-10-31T11:11:05.541Z,17.01
2022-10-31T11:13:32.660Z,16.39
2022-10-31T11:16:12.786Z,17.07
2022-10-31T11:18:42.947Z,15.01
2022-10-31T11:21:30.117Z,15.03
2022-10-31T11:24:24.299Z,15.47
2022-10-31T11:26:51.679Z,16.13
2022-10-31T11:29:28.239Z,15.13
2022-10-31T11:31:58.472Z,15.87
2022-10-31T11:34:28.230Z,15.02
2022-10-31T11:36:54.918Z,16.72
2022-10-31T11:39:23.544Z,15.14
2022-10-31T11:41:50.570Z,16.10
2022-10-31T11:44:30.024Z,15.65
2022-10-31T11:46:59.818Z,16.76
2022-10-31T11:49:35.093Z,16.08
2022-10-31T11:52:09.309Z,16.71
2022-10-31T11:54:51.185Z,16.78
2022-10-31T11:57:25.095Z,17.61
2022-10-31T11:59:53.632Z,16.19
2022-10-31T12:02:20.450Z,17.67
2022-10-31T12:04:50.181Z,16.08
2022-10-31T12:07:16.902Z,17.70
2022-10-31T12:09:43.671Z,16.99
2022-10-31T12:12:37.510Z,17.68
2022-10-31T12:15:13.558Z,15.96
2022-10-31T12:18:11.396Z,16.71
2022-10-31T12:20:56.457Z,17.17
2022-10-31T12:23:42.670Z,17.58
2022-10-31T12:26:32.443Z,16.35
2022-10-31T12:29:22.881Z,16.18
2022-10-31T12:32:01.825Z,16.02
2022-10-31T12:34:50.384Z,16.31
2022-10-31T12:37:20.586Z,15.53
2022-10-31T12:39:59.299Z,17.26
2022-10-31T12:42:44.720Z,17.25
2022-10-31T12:45:50.990Z,17.19
2022-10-31T12:48:30.234Z,15.46
2022-10-31T12:51:03.167Z,16.64
2022-10-31T12:53:54.510Z,17.10
2022-10-31T12:56:43.311Z,15.44
2022-10-31T12:59:12.364Z,14.60
2022-10-31T13:01:50.068Z,15.93
2022-10-31T13:04:50.805Z,15.39
2022-10-31T13:07:24.692Z,17.02
2022-10-31T13:10:00.467Z,15.29
2022-10-31T13:12:27.857Z,16.56
2022-10-31T13:15:17.077Z,15.05
2022-10-31T13:17:46.495Z,13.89
2022-10-31T13:20:25.854Z,15.95
2022-10-31T13:23:00.630Z,14.97
2022-10-31T13:25:31.177Z,14.81
2022-10-31T13:28:02.578Z,15.22
2022-10-31T13:30:32.526Z,15.63
2022-10-31T13:33:04.311Z,15.46
2022-10-31T13:35:51.279Z,16.34
2022-10-31T13:38:25.680Z,15.57
2022-10-31T13:41:02.177Z,15.12
2022-10-31T13:43:28.901Z,16.08
2022-10-31T13:45:56.422Z,15.54
2022-10-31T13:48:26.133Z,15.98
2022-10-31T13:50:57.676Z,14.60
2022-10-31T13:53:35.785Z,14.25
2022-10-31T13:56:16.885Z,14.13
2022-10-31T13:59:15.875Z,14.58
2022-10-31T14:01:52.196Z,14.40
2022-10-31T14:04:27.257Z,14.56
2022-10-31T14:07:10.178Z,15.61
2022-10-31T14:10:28.975Z,14.34
2022-10-31T14:13:17.224Z,14.04
2022-10-31T14:15:52.761Z,13.97
2022-10-31T14:18:30.223Z,12.51
2022-10-31T14:21:25.026Z,15.24
2022-10-31T14:23:55.306Z,14.26
2022-10-31T14:26:28.139Z,15.12
2022-10-31T14:29:17.073Z,15.05
2022-10-31T14:31:45.938Z,13.84
2022-10-31T14:34:12.509Z,14.94
2022-10-31T14:36:57.749Z,13.98
2022-10-31T14:39:24.815Z,14.77
2022-10-31T14:42:09.575Z,14.03
2022-10-31T14:45:10.363Z,14.59
2022-10-31T14:48:06.797Z,14.45
2022-10-31T14:50:45.461Z,13.77
2022-10-31T14:53:16.596Z,13.21
2022-10-31T14:55:46.141Z,11.70
2022-10-31T14:58:16.615Z,13.25
2022-10-31T15:00:44.082Z,12.51
2022-10-31T15:03:44.713Z,12.08
2022-10-31T15:06:21.114Z,11.48
2022-10-31T15:08:48.846Z,13.80
2022-10-31T15:11:19.548Z,11.97
2022-10-31T15:13:53.886Z,11.01
2022-10-31T15:16:23.902Z,11.37
2022-10-31T15:19:17.266Z,12.38
2022-10-31T15:21:47.547Z,13.28
2022-10-31T15:24:20.107Z,10.84
2022-10-31T15:26:52.188Z,11.95
2022-10-31T15:29:24.303Z,11.49
2022-10-31T15:32:01.905Z,10.79
2022-10-31T15:34:41.431Z,11.67
2022-10-31T15:37:15.824Z,12.47
2022-10-31T15:39:43.247Z,11.01
2022-10-31T15:42:36.367Z,11.45
2022-10-31T15:45:12.267Z,11.27
2022-10-31T15:47:38.994Z,11.35
2022-10-31T15:50:23.561Z,10.15
2022-10-31T15:52:51.439Z,11.46
2022-10-31T15:55:21.934Z,10.46
2022-10-31T15:57:50.201Z,10.52
2022-10-31T16:00:30.303Z,10.56
2022-10-31T16:03:06.048Z,11.28
2022-10-31T16:05:59.906Z,10.97
2022-10-31T16:08:29.340Z,11.08
2022-10-31T16:11:19.569Z,9.57
2022-10-31T16:13:58.167Z,10.05
2022-10-31T16:16:40.210Z,9.60
2022-10-31T16:19:06.896Z,9.57
2022-10-31T16:21:35.979Z,8.92
2022-10-31T16:24:13.198Z,9.28
2022-10-31T16:26:39.866Z,8.84
2022-10-31T16:29:38.656Z,9.28
2022-10-31T16:32:05.569Z,10.40
2022-10-31T16:34:32.197Z,10.40
2022-10-31T16:36:58.864Z,9.76
2022-10-31T16:39:25.494Z,8.91
2022-10-31T16:41:53.099Z,9.32
2022-10-31T16:44:24.616Z,9.57
2022-10-31T16:47:07.873Z,10.31
2022-10-31T16:49:34.480Z,10.11
2022-10-31T16:52:01.562Z,9.29
2022-10-31T16:54:29.919Z,8.33
2022-10-31T16:56:56.614Z,9.21
2022-10-31T16:59:23.312Z,7.89
2022-10-31T17:01:52.107Z,8.08
2022-10-31T17:04:19.385Z,7.97
2022-10-31T17:06:46.462Z,8.53
2022-10-31T17:09:13.186Z,9.33
2022-10-31T17:11:48.206Z,8.49
2022-10-31T17:14:16.307Z,7.80
2022-10-31T17:16:43.175Z,8.50
2022-10-31T17:19:13.107Z,8.71
2022-10-31T17:21:40.264Z,7.81
2022-10-31T17:24:07.603Z,7.96
2022-10-31T17:26:34.467Z,9.00
2022-10-31T17:29:07.069Z,7.96
2022-10-31T17:31:36.701Z,8.24
2022-10-31T17:34:05.373Z,9.00
2022-10-31T17:36:33.035Z,7.93
2022-10-31T17:39:00.306Z,8.50
2022-10-31T17:41:27.880Z,7.86
2022-10-31T17:44:01.602Z,8.60
2022-10-31T17:46:29.551Z,8.22
2022-10-31T17:48:56.815Z,8.10
2022-10-31T17:51:23.538Z,7.55
2022-10-31T17:53:50.250Z,8.64
2022-10-31T17:56:16.895Z,8.66
2022-10-31T17:58:43.701Z,8.37
2022-10-31T18:01:12.094Z,8.54
2022-10-31T18:03:38.895Z,8.35
2022-10-31T18:06:06.037Z,8.20
2022-10-31T18:08:35.090Z,9.52
2022-10-31T18:11:09.693Z,7.46
2022-10-31T18:13:36.807Z,8.42
2022-10-31T18:16:08.289Z,8.67
2022-10-31T18:18:34.945Z,7.96
2022-10-31T18:21:01.600Z,8.36
2022-10-31T18:23:28.281Z,7.78
2022-10-31T18:25:55.269Z,8.67
2022-10-31T18:28:21.932Z,9.42
2022-10-31T18:30:48.623Z,7.29
2022-10-31T18:33:15.298Z,8.09
2022-10-31T18:35:42.034Z,8.44
2022-10-31T18:38:09.401Z,9.42
2022-10-31T18:40:36.372Z,8.50
2022-10-31T18:43:03.601Z,8.32
2022-10-31T18:45:41.757Z,7.17
2022-10-31T18:48:14.558Z,8.72
2022-10-31T18:50:41.391Z,8.28
2022-10-31T18:53:08.089Z,7.68
2022-10-31T18:55:34.902Z,8.59
2022-10-31T18:58:01.472Z,8.74
2022-10-31T19:00:28.067Z,8.63
2022-10-31T19:02:56.595Z,8.76
2022-10-31T19:05:23.414Z,8.74
2022-10-31T19:07:50.403Z,8.57
2022-10-31T19:10:17.061Z,8.29
2022-10-31T19:12:43.679Z,9.04
2022-10-31T19:15:10.605Z,8.73
2022-10-31T19:17:37.206Z,7.78
2022-10-31T19:20:05.308Z,8.25
2022-10-31T19:22:32.287Z,9.64
2022-10-31T19:24:58.944Z,7.86
2022-10-31T19:27:28.142Z,7.34
2022-10-31T19:29:54.794Z,8.12
2022-10-31T19:32:21.469Z,6.93
2022-10-31T19:34:48.096Z,7.89
2022-10-31T19:37:14.833Z,8.10
2022-10-31T19:39:44.358Z,7.46
2022-10-31T19:42:11.201Z,8.11
2022-10-31T19:44:37.843Z,7.89
2022-10-31T19:47:04.558Z,8.56
2022-10-31T19:49:31.207Z,7.84
2022-10-31T19:51:58.218Z,8.26
2022-10-31T19:54:24.936Z,7.49
2022-10-31T19:56:51.580Z,7.80
2022-10-31T19:59:18.296Z,9.08
2022-10-31T20:01:45.081Z,7.91
2022-10-31T20:04:11.926Z,7.52
2022-10-31T20:06:41.775Z,7.85
2022-10-31T20:09:10.610Z,7.25
2022-10-31T20:11:38.167Z,8.28
2022-10-31T20:14:05.253Z,8.08
2022-10-31T20:16:32.673Z,8.89
2022-10-31T20:19:29.278Z,9.39
2022-10-31T20:21:56.171Z,7.48
2022-10-31T20:24:22.971Z,7.13
2022-10-31T20:26:49.661Z,6.86
2022-10-31T20:29:16.596Z,7.35
2022-10-31T20:31:43.678Z,8.44
2022-10-31T20:34:10.826Z,7.13
2022-10-31T20:36:37.558Z,8.17
2022-10-31T20:39:28.116Z,9.43
2022-10-31T20:41:54.830Z,6.55
2022-10-31T20:44:21.676Z,6.78
2022-10-31T20:46:48.341Z,6.73
2022-10-31T20:49:15.005Z,7.83
2022-10-31T20:51:41.688Z,7.37
2022-10-31T20:54:09.454Z,8.48
2022-10-31T20:56:36.303Z,8.20
2022-10-31T20:59:03.047Z,8.26
2022-10-31T21:01:30.670Z,8.24
2022-10-31T21:03:58.555Z,7.74
2022-10-31T21:06:25.336Z,7.78
2022-10-31T21:08:52.135Z,7.70
2022-10-31T21:11:20.203Z,8.14
2022-10-31T21:13:47.751Z,8.57
2022-10-31T21:16:21.631Z,7.84
2022-10-31T21:18:49.334Z,9.50
2022-10-31T21:21:17.018Z,8.55
2022-10-31T21:23:44.159Z,7.21
2022-10-31T21:26:16.394Z,8.36
2022-10-31T21:28:43.094Z,7.42
2022-10-31T21:31:11.710Z,8.40
2022-10-31T21:33:38.664Z,8.85
2022-10-31T21:36:05.814Z,8.30
2022-10-31T21:38:32.588Z,8.68
2022-10-31T21:41:07.414Z,8.35
2022-10-31T21:43:38.172Z,8.14
2022-10-31T21:46:05.364Z,8.26
2022-10-31T21:48:33.189Z,8.43
2022-10-31T21:51:04.376Z,7.55
2022-10-31T21:53:49.675Z,8.21
2022-10-31T21:56:16.379Z,7.70
2022-10-31T21:58:43.089Z,8.04
2022-10-31T22:01:09.934Z,7.97
2022-10-31T22:03:38.720Z,7.92
2022-10-31T22:06:06.328Z,7.52
2022-10-31T22:08:33.008Z,7.58
2022-10-31T22:11:03.958Z,7.78
2022-10-31T22:13:31.705Z,7.60
2022-10-31T22:16:02.351Z,8.62
2022-10-31T22:18:29.178Z,7.74
2022-10-31T22:21:02.055Z,7.43
2022-10-31T22:23:28.965Z,9.48
2022-10-31T22:25:55.648Z,7.42
2022-10-31T22:28:22.283Z,8.45
2022-10-31T22:30:48.920Z,8.52
2022-10-31T22:33:15.582Z,9.25
2022-10-31T22:35:42.208Z,7.42
2022-10-31T22:38:08.836Z,7.90
2022-10-31T22:40:35.490Z,9.41
2022-10-31T22:43:02.467Z,8.82
2022-10-31T22:45:29.379Z,8.26
2022-10-31T22:47:56.031Z,7.90
2022-10-31T22:50:22.732Z,7.85
2022-10-31T22:52:49.478Z,7.71
2022-10-31T22:55:17.419Z,7.33
2022-10-31T22:57:44.052Z,7.09
2022-10-31T23:00:11.181Z,8.31
2022-10-31T23:02:37.939Z,7.87
2022-10-31T23:05:05.110Z,9.58
2022-10-31T23:07:33.066Z,8.91
2022-10-31T23:09:59.908Z,8.34
2022-10-31T23:12:44.905Z,8.28
2022-10-31T23:15:11.521Z,6.90
2022-10-31T23:17:39.191Z,8.46
2022-10-31T23:20:07.298Z,9.40
2022-10-31T23:22:33.992Z,8.57
2022-10-31T23:25:00.682Z,9.01
2022-10-31T23:27:27.377Z,7.39
2022-10-31T23:29:55.678Z,8.09
2022-10-31T23:32:37.807Z,8.61
2022-10-31T23:35:06.809Z,7.51
2022-10-31T23:37:34.368Z,8.60
2022-10-31T23:40:01.057Z,8.69
2022-10-31T23:42:27.888Z,8.71
2022-10-31T23:44:54.818Z,8.11
2022-10-31T23:47:21.669Z,8.54
2022-10-31T23:49:48.427Z,8.58
2022-10-31T23:52:15.202Z,7.64
2022-10-31T23:54:41.926Z,7.78
2022-10-31T23:57:08.852Z,7.81
2022-10-31T23:59:36.953Z,7.57
